createdAt,value
2022-12-20T00:49:15.311Z,99031.13
2022-12-20T01:30:07.532Z,98990.59
2022-12-20T01:50:10.348Z,99019.31
2022-12-20T02:30:38.715Z,98980.44
2022-12-20T03:10:57.395Z,98953.47
2022-12-20T03:51:18.295Z,98960.22
2022-12-20T04:31:37.697Z,98926.47
2022-12-20T04:51:41.705Z,98949.34
2022-12-20T05:11:48.442Z,98940.84
2022-12-20T05:31:51.483Z,98915.31
2022-12-20T05:51:54.002Z,98905.88
2022-12-20T06:11:58.645Z,98889.56
2022-12-20T06:32:01.459Z,98883.78
2022-12-20T06:52:05.550Z,98891.38
2022-12-20T07:12:09.782Z,98886.69
2022-12-20T07:32:12.452Z,98901.63
2022-12-20T08:32:55.494Z,98852.25
2022-12-20T08:52:58.054Z,98876.69
2022-12-20T10:34:11.803Z,98779.44
2022-12-20T10:54:18.936Z,98774.22
2022-12-20T11:14:22.525Z,98739.44
2022-12-20T11:34:25.169Z,98704.78
2022-12-20T11:54:27.785Z,98696.44
2022-12-20T12:14:31.497Z,98696.22
2022-12-20T12:34:34.041Z,98689.53
2022-12-20T12:54:36.701Z,98673.75
2022-12-20T13:14:39.272Z,98665.44
2022-12-20T15:16:12.983Z,98644.75
2022-12-20T16:16:50.128Z,98609.47
2022-12-20T16:36:53.796Z,98589.25
2022-12-20T16:56:57.951Z,98580.00
2022-12-20T17:17:01.634Z,98590.69
2022-12-20T18:17:57.448Z,98564.06
2022-12-20T20:19:22.114Z,98497.00
2022-12-20T20:39:24.991Z,98488.53
2022-12-20T20:59:27.763Z,98477.84
2022-12-20T21:19:30.566Z,98451.00
2022-12-20T21:39:33.367Z,98417.16
2022-12-20T21:59:35.845Z,98401.34
2022-12-20T22:19:38.362Z,98386.63
2022-12-20T22:39:41.839Z,98350.62
2022-12-20T22:59:44.921Z,98337.66
2022-12-20T23:20:06.528Z,98293.81
2022-12-20T23:40:08.932Z,98288.47
